Hovedside
METAR-TAF:

METAR-TAF

Lufthavner :

Luleå, Sverige

Luleå lufthavn

breddegrad: 65-33N, lengdegrad: 022-08E, høyde over havet: 17 m

Gjeldene værobservasjon

Denne rapporten ble laget for 38 minutter siden, klokken 18:20 UTC
Vind 5 kt fra Sør
Temperatur 8°C
Luftfuktighet 93%
Trykk 1031 hPa
Sikt 10 km eller mer
Overskyet i en høyde av 600 ft

METAR: ESPA 221820Z 17005KT 9999 OVC006 08/07 Q1031

Tid: 20:58 (18:58 UTC)

Varsel

Denne rapporten ble laget for 1 time og 28 minutter siden, klokken 17:30 UTC
Varsel gyldig fra 22. klokken 18 UTC til 22. klokken 23 UTC
Vind 8 kt fra Sør-sørøst
Sikt 10 km eller mer
Brutte skyer i en høyde av 800 ft
Midlertidig
fra 22. klokken 18 UTC til 22. klokken 19 UTC
Spredte skyer i en høyde av 800 ft
Brutte skyer i en høyde av 2000 ft
Blir
fra 22. klokken 19 UTC til 22. klokken 21 UTC

TAF: ESPA 221730Z 2218/2223 15008KT 9999 BKN008 TEMPO 2218/2219 SCT008 BKN020 BECMG 2219/2221 NSC

Værobservasjoner og værvarsel for over 4000 flyplasser (METAR- og TAF-rapporter).

Tilgjengelige stasjoner er representert av de røde og gule prikkene på kartet.

Hold musepekeren over prikken for å se navnet på stasjonen.

Klikk så for å se værobservasjoner og -varsler.

For å forandre kartet kan du klikke på den grønne knappen med svart kryss for å zoome inn, på den grønne knappen med strek for å zoome ut, eller på de grønne pilene for å se tilstøtende kart.


METAR-TAF: